SAAR/ROS METAR and TAF weather

Enter ICAO airport designator
Station Type Date Time Source
SAAR METAR 2019/12/06 09:00 UTC NOAA

SAAR 060900Z 32008KT CAVOK 14/10 Q1010


Station Type Date Time Source
SAAR Decoded METAR 2019/12/06 09:00 UTC NOAA

Rosario Aerodrome, Argentina (SAAR) 32-55S 060-47W 25M
Dec 06, 2019 - 04:00 AM EST / 2019.12.06 0900 UTC
Wind: from the NW (320 degrees) at 9 MPH (8 KT):0
Visibility: greater than 7 mile(s):0
Temperature: 57 F (14 C)
Dew Point: 50 F (10 C)
Relative Humidity: 76%
Pressure (altimeter): 29.83 in. Hg (1010 hPa)
ob: SAAR 060900Z 32008KT CAVOK 14/10 Q1010
cycle: 9

Station Type Date Time Source
SAAR TAF 2019/12/06 06:14 UTC NOAA

TAF SAAR 060500Z 0606/0706 32005KT CAVOK TX28/0618Z TN09/0609Z
BECMG 0609/0611 VRB03KT
BECMG 0615/0617 26010KT 9999 FEW030 BKN060
BECMG 0622/0700 16005KT

Example: see airport list